Time,TemperatureF,DewpointF,PressureIn,WindDirection,WindDirectionDegrees,WindSpeedMPH,WindSpeedGustMPH,Humidity,HourlyPrecipIn,Conditions,Clouds,dailyrainin,SoftwareType,DateUTC
2013-03-31 00:00:00,47.7,35.3,29.90,North,32767,0.0,0.0,62,0.00,,,0.00,Wunderground v.1.13,2013-03-31 04:00:00,
2013-03-31 00:02:00,48.1,34.9,29.92,N/A,-737280,0.0,0.0,60,0.00,,,0.00,Wunderground v.1.13,2013-03-31 04:02:00,
2013-03-31 00:03:00,47.7,35.3,29.90,North,32767,0.0,0.0,62,0.00,,,0.00,Wunderground v.1.13,2013-03-31 04:03:00,
2013-03-31 00:06:00,47.6,35.2,29.90,North,360,0.0,0.0,62,0.00,,,0.00,Wunderground v.1.13,2013-03-31 04:06:00,
2013-03-31 00:11:00,47.5,35.1,29.90,North,360,0.0,0.0,62,0.00,,,0.00,Wunderground v.1.13,2013-03-31 04:11:00,
2013-03-31 00:16:00,47.5,35.1,29.90,North,360,0.0,0.0,62,0.00,,,0.00,Wunderground v.1.13,2013-03-31 04:16:00,
2013-03-31 00:22:00,47.4,35.0,29.90,North,32767,0.0,0.0,62,0.00,,,0.00,Wunderground v.1.13,2013-03-31 04:22:00,
2013-03-31 00:27:00,47.3,35.3,29.90,North,32767,0.0,0.0,63,0.00,,,0.00,Wunderground v.1.13,2013-03-31 04:27:00,
2013-03-31 00:32:00,47.3,35.3,29.90,North,360,0.0,0.0,63,0.00,,,0.00,Wunderground v.1.13,2013-03-31 04:32:00,
2013-03-31 00:38:00,47.3,35.3,29.90,North,360,0.0,0.0,63,0.00,,,0.00,Wunderground v.1.13,2013-03-31 04:38:00,
2013-03-31 00:43:00,47.8,35.0,29.91,N/A,-737280,0.0,0.0,61,0.00,,,0.00,Wunderground v.1.13,2013-03-31 04:43:00,
2013-03-31 00:49:00,47.2,35.2,29.89,North,32767,0.0,0.0,63,0.00,,,0.00,Wunderground v.1.13,2013-03-31 04:49:00,
2013-03-31 00:56:00,47.2,35.2,29.89,North,360,0.0,0.0,63,0.00,,,0.00,Wunderground v.1.13,2013-03-31 04:56:00,
2013-03-31 01:01:00,47.2,35.2,29.88,North,360,0.0,0.0,63,0.00,,,0.00,Wunderground v.1.13,2013-03-31 05:01:00,
2013-03-31 01:07:00,47.2,35.6,29.88,North,32767,0.0,0.0,64,0.00,,,0.00,Wunderground v.1.13,2013-03-31 05:07:00,
2013-03-31 01:13:00,47.3,35.7,29.87,North,32767,0.0,0.0,64,0.00,,,0.00,Wunderground v.1.13,2013-03-31 05:13:00,
2013-03-31 01:18:00,47.2,35.6,29.87,North,32767,0.0,0.0,64,0.00,,,0.00,Wunderground v.1.13,2013-03-31 05:18:00,
2013-03-31 01:23:00,47.1,35.5,29.87,North,360,0.0,0.0,64,0.00,,,0.00,Wunderground v.1.13,2013-03-31 05:23:00,
2013-03-31 01:29:00,47.1,35.5,29.86,North,360,0.0,0.0,64,0.00,,,0.00,Wunderground v.1.13,2013-03-31 05:29:00,
2013-03-31 01:35:00,47.1,35.9,29.86,North,360,0.0,0.0,65,0.00,,,0.00,Wunderground v.1.13,2013-03-31 05:35:00,
2013-03-31 01:42:00,47.1,36.3,29.86,North,32767,0.0,0.0,66,0.00,,,0.00,Wunderground v.1.13,2013-03-31 05:42:00,
2013-03-31 01:47:00,47.0,36.6,29.85,North,32767,0.0,0.0,67,0.00,,,0.00,Wunderground v.1.13,2013-03-31 05:47:00,
2013-03-31 01:52:00,47.0,37.0,29.85,North,32767,0.0,0.0,68,0.00,,,0.00,Wunderground v.1.13,2013-03-31 05:52:00,
2013-03-31 01:58:00,46.9,37.3,29.84,North,360,0.0,0.0,69,0.00,,,0.00,Wunderground v.1.13,2013-03-31 05:58:00,
2013-03-31 02:03:00,46.8,37.2,29.84,North,360,0.0,0.0,69,0.00,,,0.00,Wunderground v.1.13,2013-03-31 06:03:00,
2013-03-31 02:09:00,46.8,37.2,29.84,North,360,0.0,0.0,69,0.00,,,0.00,Wunderground v.1.13,2013-03-31 06:09:00,
2013-03-31 02:14:00,46.8,37.5,29.83,North,32767,0.0,0.0,70,0.00,,,0.00,Wunderground v.1.13,2013-03-31 06:14:00,
2013-03-31 02:19:00,46.7,37.4,29.83,North,32767,0.0,0.0,70,0.00,,,0.00,Wunderground v.1.13,2013-03-31 06:19:00,
2013-03-31 02:25:00,46.7,37.4,29.83,North,32767,0.0,0.0,70,0.00,,,0.00,Wunderground v.1.13,2013-03-31 06:25:00,
2013-03-31 02:31:00,46.6,37.3,29.82,North,32767,0.0,0.0,70,0.00,,,0.00,Wunderground v.1.13,2013-03-31 06:31:00,
2013-03-31 02:36:00,46.5,36.9,29.82,North,32767,0.0,0.0,69,0.00,,,0.00,Wunderground v.1.13,2013-03-31 06:36:00,
2013-03-31 02:41:00,46.4,37.1,29.82,North,32767,0.0,0.0,70,0.00,,,0.00,Wunderground v.1.13,2013-03-31 06:41:00,
2013-03-31 02:47:00,46.4,37.1,29.81,North,32767,0.0,0.0,70,0.00,,,0.00,Wunderground v.1.13,2013-03-31 06:47:00,
2013-03-31 02:53:00,46.3,36.7,29.81,North,32767,0.0,0.0,69,0.00,,,0.00,Wunderground v.1.13,2013-03-31 06:53:00,
2013-03-31 02:58:00,46.3,36.7,29.81,North,32767,0.0,0.0,69,0.00,,,0.00,Wunderground v.1.13,2013-03-31 06:58:00,
2013-03-31 03:04:00,46.3,36.7,29.81,North,32767,0.0,0.0,69,0.00,,,0.00,Wunderground v.1.13,2013-03-31 07:04:00,
2013-03-31 03:09:00,46.2,36.6,29.81,North,32767,0.0,0.0,69,0.00,,,0.00,Wunderground v.1.13,2013-03-31 07:09:00,
2013-03-31 03:14:00,46.1,36.5,29.80,North,32767,0.0,0.0,69,0.00,,,0.00,Wunderground v.1.13,2013-03-31 07:14:00,
2013-03-31 03:20:00,46.0,36.8,29.80,North,360,0.0,0.0,70,0.00,,,0.00,Wunderground v.1.13,2013-03-31 07:20:00,
2013-03-31 03:24:00,46.0,36.8,29.80,North,32767,0.0,0.0,70,0.00,,,0.00,Wunderground v.1.13,2013-03-31 07:24:00,
2013-03-31 03:30:00,45.9,36.7,29.80,North,360,0.0,0.0,70,0.00,,,0.00,Wunderground v.1.13,2013-03-31 07:30:00,
2013-03-31 03:36:00,45.9,36.7,29.80,North,360,0.0,0.0,70,0.00,,,0.00,Wunderground v.1.13,2013-03-31 07:36:00,
2013-03-31 03:42:00,45.8,36.6,29.79,North,360,0.0,0.0,70,0.00,,,0.00,Wunderground v.1.13,2013-03-31 07:42:00,
2013-03-31 03:48:00,45.7,36.5,29.79,North,360,0.0,0.0,70,0.00,,,0.00,Wunderground v.1.13,2013-03-31 07:48:00,
2013-03-31 03:53:00,45.7,36.5,29.79,North,32767,0.0,0.0,70,0.00,,,0.00,Wunderground v.1.13,2013-03-31 07:53:00,
2013-03-31 03:59:00,45.6,36.4,29.78,North,32767,0.0,0.0,70,0.00,,,0.00,Wunderground v.1.13,2013-03-31 07:59:00,
2013-03-31 04:04:00,45.6,36.4,29.78,North,32767,0.0,0.0,70,0.00,,,0.00,Wunderground v.1.13,2013-03-31 08:04:00,
2013-03-31 04:10:00,45.6,36.7,29.78,North,360,0.0,0.0,71,0.00,,,0.00,Wunderground v.1.13,2013-03-31 08:10:00,
2013-03-31 04:18:00,45.6,36.7,29.77,North,360,0.0,0.0,71,0.00,,,0.00,Wunderground v.1.13,2013-03-31 08:18:00,
2013-03-31 04:23:00,45.6,36.7,29.77,North,32767,0.0,0.0,71,0.00,,,0.00,Wunderground v.1.13,2013-03-31 08:23:00,
2013-03-31 04:30:00,45.6,36.7,29.77,North,360,0.0,0.0,71,0.00,,,0.00,Wunderground v.1.13,2013-03-31 08:30:00,
2013-03-31 04:35:00,45.4,37.2,29.77,North,32767,0.0,0.0,73,0.00,,,0.00,Wunderground v.1.13,2013-03-31 08:35:00,
2013-03-31 04:40:00,45.2,37.4,29.77,North,32767,0.0,0.0,74,0.00,,,0.00,Wunderground v.1.13,2013-03-31 08:40:00,
2013-03-31 04:45:00,45.0,37.6,29.76,North,32767,0.0,0.0,75,0.00,,,0.00,Wunderground v.1.13,2013-03-31 08:45:00,
2013-03-31 04:50:00,45.0,38.2,29.76,North,32767,0.0,0.0,77,0.00,,,0.00,Wunderground v.1.13,2013-03-31 08:50:00,
2013-03-31 04:56:00,44.8,38.0,29.76,North,32767,0.0,0.0,77,0.00,,,0.00,Wunderground v.1.13,2013-03-31 08:56:00,
2013-03-31 05:01:00,44.8,38.0,29.76,North,360,0.0,0.0,77,0.00,,,0.00,Wunderground v.1.13,2013-03-31 09:01:00,
2013-03-31 05:06:00,44.8,38.4,29.76,North,360,0.0,0.0,78,0.00,,,0.00,Wunderground v.1.13,2013-03-31 09:06:00,
2013-03-31 05:12:00,44.6,38.5,29.76,North,32767,0.0,0.0,79,0.00,,,0.00,Wunderground v.1.13,2013-03-31 09:12:00,
2013-03-31 05:17:00,44.4,38.9,29.76,North,32767,0.0,0.0,81,0.00,,,0.01,Wunderground v.1.13,2013-03-31 09:17:00,
2013-03-31 05:22:00,44.0,38.9,29.76,North,32767,0.0,0.0,82,0.09,,,0.02,Wunderground v.1.13,2013-03-31 09:22:00,
2013-03-31 05:29:00,43.6,39.1,29.75,North,360,0.0,0.0,84,0.07,,,0.02,Wunderground v.1.13,2013-03-31 09:29:00,
2013-03-31 05:35:00,43.4,39.5,29.75,North,360,0.0,0.0,86,0.04,,,0.02,Wunderground v.1.13,2013-03-31 09:35:00,
2013-03-31 05:40:00,43.2,39.9,29.75,North,360,0.0,0.0,88,0.04,,,0.03,Wunderground v.1.13,2013-03-31 09:40:00,
2013-03-31 05:46:00,43.3,40.3,29.75,North,360,0.0,0.0,89,0.04,,,0.03,Wunderground v.1.13,2013-03-31 09:46:00,
2013-03-31 05:52:00,43.3,40.6,29.75,North,360,0.0,0.0,90,0.04,,,0.03,Wunderground v.1.13,2013-03-31 09:52:00,
2013-03-31 05:57:00,43.3,40.6,29.75,North,360,0.0,0.0,90,0.00,,,0.03,Wunderground v.1.13,2013-03-31 09:57:00,
2013-03-31 06:02:00,43.3,40.8,29.75,North,360,0.0,0.0,91,0.00,,,0.03,Wunderground v.1.13,2013-03-31 10:02:00,
2013-03-31 06:08:00,43.4,40.9,29.75,North,360,0.0,0.0,91,0.00,,,0.04,Wunderground v.1.13,2013-03-31 10:08:00,
2013-03-31 06:13:00,43.5,41.3,29.74,North,360,0.0,0.0,92,0.00,,,0.04,Wunderground v.1.13,2013-03-31 10:13:00,
2013-03-31 06:19:00,43.6,41.4,29.74,North,360,0.0,0.0,92,0.00,,,0.04,Wunderground v.1.13,2013-03-31 10:19:00,
2013-03-31 06:25:00,43.6,41.4,29.74,North,360,0.0,0.0,92,0.00,,,0.04,Wunderground v.1.13,2013-03-31 10:25:00,
2013-03-31 06:30:00,43.6,41.7,29.74,North,360,0.0,0.0,93,0.00,,,0.04,Wunderground v.1.13,2013-03-31 10:30:00,
2013-03-31 06:35:00,43.6,41.7,29.74,North,360,0.0,0.0,93,0.00,,,0.04,Wunderground v.1.13,2013-03-31 10:35:00,
2013-03-31 06:40:00,43.7,41.8,29.74,North,360,0.0,0.0,93,0.00,,,0.04,Wunderground v.1.13,2013-03-31 10:40:00,
2013-03-31 06:46:00,43.7,41.8,29.74,North,360,0.0,0.0,93,0.00,,,0.04,Wunderground v.1.13,2013-03-31 10:46:00,
2013-03-31 06:53:00,43.8,41.9,29.74,North,360,0.0,0.0,93,0.00,,,0.04,Wunderground v.1.13,2013-03-31 10:53:00,
2013-03-31 06:58:00,43.8,42.2,29.73,North,360,0.0,0.0,94,0.00,,,0.04,Wunderground v.1.13,2013-03-31 10:58:00,
2013-03-31 07:03:00,43.9,42.3,29.73,North,360,0.0,0.0,94,0.00,,,0.04,Wunderground v.1.13,2013-03-31 11:03:00,
2013-03-31 07:09:00,44.0,42.4,29.73,North,360,0.0,0.0,94,0.00,,,0.04,Wunderground v.1.13,2013-03-31 11:09:00,
2013-03-31 07:14:00,44.0,42.4,29.73,North,360,0.0,0.0,94,0.00,,,0.04,Wunderground v.1.13,2013-03-31 11:14:00,
2013-03-31 07:20:00,44.1,42.8,29.73,North,360,0.0,0.0,95,0.00,,,0.04,Wunderground v.1.13,2013-03-31 11:20:00,
2013-03-31 07:25:00,44.1,42.8,29.73,North,360,0.0,0.0,95,0.00,,,0.04,Wunderground v.1.13,2013-03-31 11:25:00,
2013-03-31 07:32:00,44.2,42.9,29.73,North,360,0.0,0.0,95,0.00,,,0.04,Wunderground v.1.13,2013-03-31 11:32:00,
2013-03-31 07:38:00,44.2,42.9,29.73,North,360,0.0,0.0,95,0.00,,,0.04,Wunderground v.1.13,2013-03-31 11:38:00,
2013-03-31 07:43:00,44.3,43.0,29.74,North,360,0.0,0.0,95,0.00,,,0.04,Wunderground v.1.13,2013-03-31 11:43:00,
2013-03-31 07:48:00,44.3,43.0,29.74,North,360,0.0,0.0,95,0.00,,,0.04,Wunderground v.1.13,2013-03-31 11:48:00,
2013-03-31 07:54:00,44.3,43.0,29.74,North,360,0.0,0.0,95,0.00,,,0.04,Wunderground v.1.13,2013-03-31 11:54:00,
2013-03-31 07:59:00,44.3,43.2,29.74,North,360,0.0,0.0,96,0.00,,,0.04,Wunderground v.1.13,2013-03-31 11:59:00,
2013-03-31 08:04:00,44.3,43.2,29.74,North,360,0.0,0.0,96,0.00,,,0.04,Wunderground v.1.13,2013-03-31 12:04:00,
2013-03-31 08:09:00,44.3,43.2,29.74,North,360,0.0,0.0,96,0.00,,,0.04,Wunderground v.1.13,2013-03-31 12:09:00,
2013-03-31 08:15:00,44.2,43.1,29.74,North,360,0.0,0.0,96,0.00,,,0.04,Wunderground v.1.13,2013-03-31 12:15:00,
2013-03-31 08:21:00,44.2,43.1,29.74,North,360,0.0,0.0,96,0.00,,,0.04,Wunderground v.1.13,2013-03-31 12:21:00,
2013-03-31 08:27:00,44.2,43.1,29.74,North,360,0.0,0.0,96,0.00,,,0.04,Wunderground v.1.13,2013-03-31 12:27:00,
2013-03-31 08:33:00,44.2,43.1,29.74,North,360,0.0,0.0,96,0.00,,,0.04,Wunderground v.1.13,2013-03-31 12:33:00,
2013-03-31 08:38:00,44.1,43.0,29.74,North,360,0.0,0.0,96,0.00,,,0.04,Wunderground v.1.13,2013-03-31 12:38:00,
2013-03-31 08:44:00,44.0,42.9,29.74,North,360,0.0,0.0,96,0.00,,,0.04,Wunderground v.1.13,2013-03-31 12:44:00,
2013-03-31 08:50:00,44.0,42.9,29.74,North,360,0.0,0.0,96,0.00,,,0.04,Wunderground v.1.13,2013-03-31 12:50:00,
2013-03-31 08:55:00,43.9,42.8,29.74,North,360,0.0,0.0,96,0.00,,,0.04,Wunderground v.1.13,2013-03-31 12:55:00,
2013-03-31 09:00:00,43.9,42.8,29.74,North,360,0.0,0.0,96,0.00,,,0.04,Wunderground v.1.13,2013-03-31 13:00:00,
2013-03-31 09:06:00,43.8,42.7,29.74,North,360,0.0,0.0,96,0.00,,,0.04,Wunderground v.1.13,2013-03-31 13:06:00,
2013-03-31 09:11:00,43.6,42.5,29.74,North,360,0.0,0.0,96,0.00,,,0.04,Wunderground v.1.13,2013-03-31 13:11:00,
2013-03-31 09:16:00,43.6,42.5,29.74,North,360,0.0,0.0,96,0.00,,,0.04,Wunderground v.1.13,2013-03-31 13:16:00,
2013-03-31 09:22:00,43.6,42.5,29.74,North,360,0.0,0.0,96,0.00,,,0.04,Wunderground v.1.13,2013-03-31 13:22:00,
2013-03-31 09:29:00,43.6,42.5,29.74,North,360,0.0,0.0,96,0.00,,,0.04,Wunderground v.1.13,2013-03-31 13:29:00,
2013-03-31 09:34:00,43.7,42.6,29.74,North,360,0.0,0.0,96,0.00,,,0.04,Wunderground v.1.13,2013-03-31 13:34:00,
2013-03-31 09:40:00,43.8,42.5,29.74,North,360,0.0,0.0,95,0.00,,,0.04,Wunderground v.1.13,2013-03-31 13:40:00,
2013-03-31 09:45:00,43.9,42.6,29.74,North,32767,0.0,0.0,95,0.00,,,0.04,Wunderground v.1.13,2013-03-31 13:45:00,
2013-03-31 09:50:00,44.0,42.7,29.74,North,32767,0.0,0.0,95,0.00,,,0.04,Wunderground v.1.13,2013-03-31 13:50:00,
2013-03-31 09:56:00,44.1,42.8,29.74,North,360,0.0,0.0,95,0.00,,,0.04,Wunderground v.1.13,2013-03-31 13:56:00,
2013-03-31 10:01:00,44.1,42.8,29.74,North,32767,0.0,0.0,95,0.00,,,0.04,Wunderground v.1.13,2013-03-31 14:01:00,
2013-03-31 10:06:00,44.0,42.4,29.74,North,360,0.0,0.0,94,0.00,,,0.04,Wunderground v.1.13,2013-03-31 14:06:00,
2013-03-31 10:13:00,44.0,42.4,29.74,North,32767,0.0,0.0,94,0.00,,,0.04,Wunderground v.1.13,2013-03-31 14:13:00,
2013-03-31 10:18:00,44.2,42.6,29.74,North,360,0.0,0.0,94,0.00,,,0.04,Wunderground v.1.13,2013-03-31 14:18:00,
2013-03-31 10:24:00,44.2,42.3,29.74,North,32767,0.0,0.0,93,0.00,,,0.04,Wunderground v.1.13,2013-03-31 14:24:00,
2013-03-31 10:29:00,44.3,42.1,29.74,North,32767,0.0,0.0,92,0.00,,,0.04,Wunderground v.1.13,2013-03-31 14:29:00,
2013-03-31 10:35:00,43.9,41.4,29.74,North,32767,0.0,0.0,91,0.00,,,0.04,Wunderground v.1.13,2013-03-31 14:35:00,
2013-03-31 10:41:00,43.8,41.3,29.74,North,32767,0.0,0.0,91,0.00,,,0.04,Wunderground v.1.13,2013-03-31 14:41:00,
2013-03-31 10:46:00,43.7,41.2,29.74,North,32767,0.0,0.0,91,0.00,,,0.04,Wunderground v.1.13,2013-03-31 14:46:00,
2013-03-31 10:51:00,43.6,40.9,29.74,North,32767,0.0,0.0,90,0.00,,,0.04,Wunderground v.1.13,2013-03-31 14:51:00,
2013-03-31 10:57:00,43.7,41.0,29.74,North,32767,0.0,0.0,90,0.00,,,0.04,Wunderground v.1.13,2013-03-31 14:57:00,
2013-03-31 11:03:00,43.7,40.7,29.74,North,32767,0.0,0.0,89,0.00,,,0.04,Wunderground v.1.13,2013-03-31 15:03:00,
2013-03-31 11:08:00,43.8,40.8,29.74,North,360,0.0,0.0,89,0.00,,,0.04,Wunderground v.1.13,2013-03-31 15:08:00,
2013-03-31 11:13:00,43.9,40.9,29.74,North,360,0.0,0.0,89,0.00,,,0.04,Wunderground v.1.13,2013-03-31 15:13:00,
2013-03-31 11:19:00,43.9,40.6,29.74,North,32767,0.0,0.0,88,0.00,,,0.04,Wunderground v.1.13,2013-03-31 15:19:00,
2013-03-31 11:25:00,43.9,40.3,29.74,North,360,0.0,0.0,87,0.00,,,0.04,Wunderground v.1.13,2013-03-31 15:25:00,
2013-03-31 11:31:00,43.8,40.2,29.74,North,32767,0.0,0.0,87,0.00,,,0.04,Wunderground v.1.13,2013-03-31 15:31:00,
2013-03-31 11:36:00,43.9,40.6,29.74,North,360,0.0,0.0,88,0.00,,,0.04,Wunderground v.1.13,2013-03-31 15:36:00,
2013-03-31 11:42:00,44.0,40.7,29.74,North,32767,0.0,0.0,88,0.00,,,0.04,Wunderground v.1.13,2013-03-31 15:42:00,
2013-03-31 11:49:00,44.3,40.7,29.74,North,32767,0.0,0.0,87,0.00,,,0.04,Wunderground v.1.13,2013-03-31 15:49:00,
2013-03-31 11:54:00,44.5,40.9,29.74,North,32767,0.0,0.0,87,0.00,,,0.04,Wunderground v.1.13,2013-03-31 15:54:00,
2013-03-31 12:00:00,44.8,41.2,29.74,North,360,0.0,0.0,87,0.00,,,0.04,Wunderground v.1.13,2013-03-31 16:00:00,
2013-03-31 12:05:00,44.8,40.9,29.74,North,32767,0.0,0.0,86,0.00,,,0.04,Wunderground v.1.13,2013-03-31 16:05:00,
2013-03-31 12:11:00,45.0,41.1,29.74,North,360,0.0,0.0,86,0.00,,,0.04,Wunderground v.1.13,2013-03-31 16:11:00,
2013-03-31 12:16:00,44.9,41.0,29.74,North,32767,0.0,0.0,86,0.00,,,0.04,Wunderground v.1.13,2013-03-31 16:16:00,
2013-03-31 12:22:00,45.0,40.8,29.74,North,360,0.0,0.0,85,0.00,,,0.04,Wunderground v.1.13,2013-03-31 16:22:00,
2013-03-31 12:28:00,45.4,41.2,29.74,North,360,0.0,0.0,85,0.00,,,0.04,Wunderground v.1.13,2013-03-31 16:28:00,
2013-03-31 12:35:00,46.1,41.2,29.74,North,360,0.0,0.0,83,0.00,,,0.04,Wunderground v.1.13,2013-03-31 16:35:00,
2013-03-31 12:40:00,46.5,41.3,29.74,North,32767,0.0,0.0,82,0.00,,,0.04,Wunderground v.1.13,2013-03-31 16:40:00,
2013-03-31 12:45:00,46.3,41.1,29.74,North,32767,0.0,0.0,82,0.00,,,0.04,Wunderground v.1.13,2013-03-31 16:45:00,
2013-03-31 12:51:00,46.4,40.9,29.74,North,32767,0.0,0.0,81,0.00,,,0.04,Wunderground v.1.13,2013-03-31 16:51:00,
2013-03-31 12:56:00,46.7,40.9,29.74,North,360,0.0,0.0,80,0.00,,,0.04,Wunderground v.1.13,2013-03-31 16:56:00,
2013-03-31 13:01:00,47.6,41.4,29.73,North,32767,0.0,0.0,79,0.00,,,0.04,Wunderground v.1.13,2013-03-31 17:01:00,
2013-03-31 13:08:00,48.6,42.0,29.73,North,360,0.0,0.0,78,0.00,,,0.04,Wunderground v.1.13,2013-03-31 17:08:00,
2013-03-31 13:13:00,48.6,41.0,29.73,North,32767,0.0,0.0,75,0.00,,,0.04,Wunderground v.1.13,2013-03-31 17:13:00,
2013-03-31 13:19:00,48.5,41.3,29.73,North,32767,0.0,0.0,76,0.00,,,0.04,Wunderground v.1.13,2013-03-31 17:19:00,
2013-03-31 13:26:00,48.9,40.6,29.73,North,32767,0.0,0.0,73,0.00,,,0.04,Wunderground v.1.13,2013-03-31 17:26:00,
2013-03-31 13:32:00,49.1,40.8,29.73,North,32767,0.0,0.0,73,0.00,,,0.04,Wunderground v.1.13,2013-03-31 17:32:00,
2013-03-31 13:37:00,49.5,40.8,29.73,North,32767,0.0,0.0,72,0.00,,,0.04,Wunderground v.1.13,2013-03-31 17:37:00,
2013-03-31 13:44:00,50.0,41.0,29.72,North,32767,0.0,0.0,71,0.00,,,0.04,Wunderground v.1.13,2013-03-31 17:44:00,
2013-03-31 13:49:00,50.9,41.5,29.72,North,32767,0.0,0.0,70,0.00,,,0.04,Wunderground v.1.13,2013-03-31 17:49:00,
2013-03-31 13:55:00,51.0,41.2,29.72,North,32767,0.0,0.0,69,0.00,,,0.04,Wunderground v.1.13,2013-03-31 17:55:00,
2013-03-31 14:00:00,51.4,41.2,29.70,North,32767,0.0,0.0,68,0.00,,,0.04,Wunderground v.1.13,2013-03-31 18:00:00,
2013-03-31 14:05:00,51.6,40.6,29.70,North,32767,0.0,0.0,66,0.00,,,0.04,Wunderground v.1.13,2013-03-31 18:05:00,
2013-03-31 14:10:00,51.8,40.8,29.70,North,32767,0.0,0.0,66,0.00,,,0.04,Wunderground v.1.13,2013-03-31 18:10:00,
2013-03-31 14:15:00,51.6,40.6,29.70,North,32767,0.0,0.0,66,0.00,,,0.04,Wunderground v.1.13,2013-03-31 18:15:00,
2013-03-31 14:20:00,52.4,41.4,29.70,North,32767,0.0,0.0,66,0.00,,,0.04,Wunderground v.1.13,2013-03-31 18:20:00,
2013-03-31 14:26:00,52.8,41.0,29.70,North,360,0.0,0.0,64,0.00,,,0.04,Wunderground v.1.13,2013-03-31 18:26:00,
2013-03-31 14:31:00,53.1,40.4,29.70,North,360,0.0,0.0,62,0.00,,,0.04,Wunderground v.1.13,2013-03-31 18:31:00,
2013-03-31 14:38:00,52.6,40.8,29.70,North,360,0.0,0.0,64,0.00,,,0.04,Wunderground v.1.13,2013-03-31 18:38:00,
2013-03-31 14:43:00,53.2,40.9,29.69,North,360,0.0,0.0,63,0.00,,,0.04,Wunderground v.1.13,2013-03-31 18:43:00,
2013-03-31 14:49:00,53.5,40.8,29.69,North,360,0.0,0.0,62,0.00,,,0.04,Wunderground v.1.13,2013-03-31 18:49:00,
2013-03-31 14:55:00,53.3,40.6,29.69,North,360,0.0,0.0,62,0.00,,,0.04,Wunderground v.1.13,2013-03-31 18:55:00,
2013-03-31 15:02:00,53.8,40.7,29.69,North,360,0.0,0.0,61,0.00,,,0.04,Wunderground v.1.13,2013-03-31 19:02:00,
2013-03-31 15:07:00,53.3,39.8,29.69,North,360,0.0,0.0,60,0.00,,,0.04,Wunderground v.1.13,2013-03-31 19:07:00,
2013-03-31 15:13:00,53.5,39.9,29.69,North,360,0.0,0.0,60,0.00,,,0.04,Wunderground v.1.13,2013-03-31 19:13:00,
2013-03-31 15:20:00,54.0,40.4,29.69,North,360,0.0,0.0,60,0.00,,,0.04,Wunderground v.1.13,2013-03-31 19:20:00,
2013-03-31 15:25:00,53.9,40.3,29.69,North,360,0.0,0.0,60,0.00,,,0.04,Wunderground v.1.13,2013-03-31 19:25:00,
2013-03-31 15:31:00,53.9,39.9,29.68,North,360,0.0,0.0,59,0.00,,,0.04,Wunderground v.1.13,2013-03-31 19:31:00,
2013-03-31 15:37:00,54.4,39.9,29.68,North,360,0.0,0.0,58,0.00,,,0.04,Wunderground v.1.13,2013-03-31 19:37:00,
2013-03-31 15:42:00,54.1,39.2,29.68,North,360,0.0,0.0,57,0.00,,,0.04,Wunderground v.1.13,2013-03-31 19:42:00,
2013-03-31 15:47:00,54.3,39.8,29.68,North,32767,0.0,0.0,58,0.00,,,0.04,Wunderground v.1.13,2013-03-31 19:47:00,
2013-03-31 15:52:00,54.3,39.4,29.68,North,32767,0.0,0.0,57,0.00,,,0.04,Wunderground v.1.13,2013-03-31 19:52:00,
2013-03-31 15:58:00,54.3,38.9,29.67,North,32767,0.0,0.0,56,0.00,,,0.04,Wunderground v.1.13,2013-03-31 19:58:00,
2013-03-31 16:03:00,54.2,39.3,29.67,North,32767,0.0,0.0,57,0.00,,,0.04,Wunderground v.1.13,2013-03-31 20:03:00,
2013-03-31 16:09:00,54.8,38.9,29.67,North,32767,0.0,0.0,55,0.00,,,0.04,Wunderground v.1.13,2013-03-31 20:09:00,
2013-03-31 16:15:00,54.4,38.6,29.68,North,360,0.0,0.0,55,0.00,,,0.04,Wunderground v.1.13,2013-03-31 20:15:00,
2013-03-31 16:21:00,54.1,38.7,29.68,North,360,0.0,0.0,56,0.00,,,0.04,Wunderground v.1.13,2013-03-31 20:21:00,
2013-03-31 16:26:00,53.9,38.6,29.68,North,32767,0.0,0.0,56,0.00,,,0.04,Wunderground v.1.13,2013-03-31 20:26:00,
2013-03-31 16:32:00,53.1,38.3,29.68,North,32767,0.0,0.0,57,0.00,,,0.04,Wunderground v.1.13,2013-03-31 20:32:00,
2013-03-31 16:37:00,53.5,39.1,29.68,North,360,0.0,0.0,58,0.00,,,0.04,Wunderground v.1.13,2013-03-31 20:37:00,
2013-03-31 16:44:00,53.5,39.5,29.68,North,32767,0.0,0.0,59,0.00,,,0.04,Wunderground v.1.13,2013-03-31 20:44:00,
2013-03-31 16:50:00,53.0,39.9,29.68,North,32767,0.0,0.0,61,0.00,,,0.04,Wunderground v.1.13,2013-03-31 20:50:00,
2013-03-31 16:54:00,52.5,39.4,29.68,North,32767,0.0,0.0,61,0.00,,,0.04,Wunderground v.1.13,2013-03-31 20:54:00,
2013-03-31 17:00:00,52.4,39.3,29.69,North,360,0.0,0.0,61,0.00,,,0.04,Wunderground v.1.13,2013-03-31 21:00:00,
2013-03-31 17:05:00,52.2,39.1,29.69,North,360,0.0,0.0,61,0.00,,,0.04,Wunderground v.1.13,2013-03-31 21:05:00,
2013-03-31 17:11:00,52.3,39.2,29.69,North,360,0.0,0.0,61,0.00,,,0.04,Wunderground v.1.13,2013-03-31 21:11:00,
2013-03-31 17:16:00,52.5,39.0,29.68,North,32767,0.0,0.0,60,0.00,,,0.04,Wunderground v.1.13,2013-03-31 21:16:00,
2013-03-31 17:22:00,52.5,39.4,29.68,North,32767,0.0,0.0,61,0.00,,,0.04,Wunderground v.1.13,2013-03-31 21:22:00,
2013-03-31 17:28:00,52.5,39.0,29.68,North,360,0.0,0.0,60,0.00,,,0.04,Wunderground v.1.13,2013-03-31 21:28:00,
2013-03-31 17:34:00,52.4,38.9,29.68,North,32767,0.0,0.0,60,0.00,,,0.04,Wunderground v.1.13,2013-03-31 21:34:00,
2013-03-31 17:40:00,52.6,39.1,29.68,North,32767,0.0,0.0,60,0.00,,,0.04,Wunderground v.1.13,2013-03-31 21:40:00,
2013-03-31 17:46:00,52.6,39.1,29.68,North,32767,0.0,0.0,60,0.00,,,0.04,Wunderground v.1.13,2013-03-31 21:46:00,
2013-03-31 17:52:00,52.4,38.9,29.68,North,32767,0.0,0.0,60,0.00,,,0.04,Wunderground v.1.13,2013-03-31 21:52:00,
2013-03-31 17:57:00,52.6,39.1,29.67,North,32767,0.0,0.0,60,0.00,,,0.04,Wunderground v.1.13,2013-03-31 21:57:00,
2013-03-31 18:03:00,52.6,39.1,29.67,North,32767,0.0,0.0,60,0.00,,,0.04,Wunderground v.1.13,2013-03-31 22:03:00,
2013-03-31 18:08:00,52.7,38.8,29.67,North,32767,0.0,0.0,59,0.00,,,0.04,Wunderground v.1.13,2013-03-31 22:08:00,
2013-03-31 18:13:00,52.6,39.1,29.67,North,360,0.0,0.0,60,0.00,,,0.04,Wunderground v.1.13,2013-03-31 22:13:00,
2013-03-31 18:20:00,52.6,38.7,29.67,North,360,0.0,0.0,59,0.00,,,0.04,Wunderground v.1.13,2013-03-31 22:20:00,
2013-03-31 18:25:00,52.5,39.0,29.67,North,360,0.0,0.0,60,0.00,,,0.04,Wunderground v.1.13,2013-03-31 22:25:00,
2013-03-31 18:31:00,52.5,39.0,29.67,North,360,0.0,0.0,60,0.00,,,0.04,Wunderground v.1.13,2013-03-31 22:31:00,
2013-03-31 18:36:00,52.4,39.3,29.67,North,360,0.0,0.0,61,0.00,,,0.04,Wunderground v.1.13,2013-03-31 22:36:00,
2013-03-31 18:41:00,52.2,39.1,29.67,North,360,0.0,0.0,61,0.00,,,0.04,Wunderground v.1.13,2013-03-31 22:41:00,
2013-03-31 18:46:00,52.0,39.4,29.67,North,360,0.0,0.0,62,0.00,,,0.04,Wunderground v.1.13,2013-03-31 22:46:00,
2013-03-31 18:53:00,51.5,40.1,29.67,North,360,0.0,0.0,65,0.00,,,0.04,Wunderground v.1.13,2013-03-31 22:53:00,
2013-03-31 18:58:00,51.0,40.8,29.68,North,32767,0.0,0.0,68,0.00,,,0.04,Wunderground v.1.13,2013-03-31 22:58:00,
2013-03-31 19:04:00,50.5,40.7,29.68,North,32767,0.0,0.0,69,0.00,,,0.04,Wunderground v.1.13,2013-03-31 23:04:00,
2013-03-31 19:09:00,50.4,40.6,29.68,North,32767,0.0,0.0,69,0.00,,,0.04,Wunderground v.1.13,2013-03-31 23:09:00,
2013-03-31 19:15:00,50.2,40.0,29.68,North,32767,0.0,0.0,68,0.00,,,0.04,Wunderground v.1.13,2013-03-31 23:15:00,
2013-03-31 19:20:00,50.2,40.0,29.68,North,360,0.0,0.0,68,0.00,,,0.04,Wunderground v.1.13,2013-03-31 23:20:00,
2013-03-31 19:26:00,50.2,40.0,29.68,North,32767,0.0,0.0,68,0.00,,,0.04,Wunderground v.1.13,2013-03-31 23:26:00,
2013-03-31 19:31:00,50.1,39.9,29.68,North,32767,0.0,0.0,68,0.00,,,0.04,Wunderground v.1.13,2013-03-31 23:31:00,
2013-03-31 19:37:00,50.0,39.8,29.68,North,32767,0.0,0.0,68,0.00,,,0.04,Wunderground v.1.13,2013-03-31 23:37:00,
2013-03-31 19:43:00,49.9,39.4,29.68,North,32767,0.0,0.0,67,0.00,,,0.04,Wunderground v.1.13,2013-03-31 23:43:00,
2013-03-31 19:48:00,49.7,38.8,29.68,North,32767,0.0,0.0,66,0.00,,,0.04,Wunderground v.1.13,2013-03-31 23:48:00,
2013-03-31 19:54:00,49.4,38.9,29.68,North,32767,0.0,0.0,67,0.00,,,0.04,Wunderground v.1.13,2013-03-31 23:54:00,
2013-03-31 20:00:00,48.8,38.7,29.69,North,32767,0.0,0.0,68,0.00,,,0.04,Wunderground v.1.13,2013-04-01 00:00:00,
2013-03-31 20:07:00,48.4,38.3,29.69,North,360,0.0,0.0,68,0.00,,,0.04,Wunderground v.1.13,2013-04-01 00:07:00,
2013-03-31 20:12:00,47.8,37.7,29.70,North,360,0.0,0.0,68,0.00,,,0.04,Wunderground v.1.13,2013-04-01 00:12:00,
2013-03-31 20:18:00,47.4,37.4,29.70,North,32767,0.0,0.0,68,0.00,,,0.04,Wunderground v.1.13,2013-04-01 00:18:00,
2013-03-31 20:23:00,46.9,36.9,29.70,North,360,0.0,0.0,68,0.00,,,0.04,Wunderground v.1.13,2013-04-01 00:23:00,
2013-03-31 20:29:00,46.6,36.6,29.71,North,32767,0.0,0.0,68,0.00,,,0.04,Wunderground v.1.13,2013-04-01 00:29:00,
2013-03-31 20:35:00,46.3,35.6,29.71,North,32767,0.0,0.0,66,0.00,,,0.04,Wunderground v.1.13,2013-04-01 00:35:00,
2013-03-31 20:40:00,45.6,34.9,29.71,North,32767,0.0,0.0,66,0.00,,,0.04,Wunderground v.1.13,2013-04-01 00:40:00,
2013-03-31 20:46:00,45.0,34.7,29.73,North,32767,0.0,0.0,67,0.00,,,0.04,Wunderground v.1.13,2013-04-01 00:46:00,
2013-03-31 20:51:00,44.3,34.8,29.73,North,360,0.0,0.0,69,0.00,,,0.04,Wunderground v.1.13,2013-04-01 00:51:00,
2013-03-31 20:57:00,43.7,34.9,29.75,North,360,0.0,0.0,71,0.00,,,0.04,Wunderground v.1.13,2013-04-01 00:57:00,
2013-03-31 21:02:00,43.1,34.7,29.75,North,32767,0.0,0.0,72,0.00,,,0.04,Wunderground v.1.13,2013-04-01 01:02:00,
2013-03-31 21:07:00,42.7,34.6,29.75,North,32767,0.0,0.0,73,0.00,,,0.04,Wunderground v.1.13,2013-04-01 01:07:00,
2013-03-31 21:14:00,42.3,34.6,29.76,North,32767,0.0,0.0,74,0.00,,,0.04,Wunderground v.1.13,2013-04-01 01:14:00,
2013-03-31 21:19:00,42.1,34.7,29.76,North,360,0.0,0.0,75,0.00,,,0.04,Wunderground v.1.13,2013-04-01 01:19:00,
2013-03-31 21:25:00,42.0,34.6,29.76,North,32767,0.0,0.0,75,0.00,,,0.04,Wunderground v.1.13,2013-04-01 01:25:00,
2013-03-31 21:30:00,41.9,34.9,29.77,North,32767,0.0,0.0,76,0.00,,,0.04,Wunderground v.1.13,2013-04-01 01:30:00,
2013-03-31 21:35:00,41.8,34.5,29.77,North,32767,0.0,0.0,75,0.00,,,0.04,Wunderground v.1.13,2013-04-01 01:35:00,
2013-03-31 21:41:00,41.6,34.3,29.77,North,32767,0.0,0.0,75,0.00,,,0.04,Wunderground v.1.13,2013-04-01 01:41:00,
2013-03-31 21:47:00,41.4,34.1,29.78,North,360,0.0,0.0,75,0.00,,,0.04,Wunderground v.1.13,2013-04-01 01:47:00,
2013-03-31 21:52:00,41.3,34.0,29.78,North,32767,0.0,0.0,75,0.00,,,0.04,Wunderground v.1.13,2013-04-01 01:52:00,
2013-03-31 21:57:00,41.2,33.9,29.78,North,32767,0.0,0.0,75,0.00,,,0.04,Wunderground v.1.13,2013-04-01 01:57:00,
2013-03-31 22:02:00,41.1,34.1,29.78,North,32767,0.0,0.0,76,0.00,,,0.04,Wunderground v.1.13,2013-04-01 02:02:00,
2013-03-31 22:08:00,41.1,34.1,29.78,North,32767,0.0,0.0,76,0.00,,,0.04,Wunderground v.1.13,2013-04-01 02:08:00,
2013-03-31 22:13:00,40.9,33.9,29.79,North,32767,0.0,0.0,76,0.00,,,0.04,Wunderground v.1.13,2013-04-01 02:13:00,
2013-03-31 22:19:00,40.7,33.4,29.79,North,32767,0.0,0.0,75,0.00,,,0.04,Wunderground v.1.13,2013-04-01 02:19:00,
2013-03-31 22:24:00,40.6,33.3,29.79,North,32767,0.0,0.0,75,0.00,,,0.04,Wunderground v.1.13,2013-04-01 02:24:00,
2013-03-31 22:29:00,40.4,33.1,29.79,North,32767,0.0,0.0,75,0.00,,,0.04,Wunderground v.1.13,2013-04-01 02:29:00,
2013-03-31 22:35:00,40.2,32.9,29.79,North,32767,0.0,0.0,75,0.00,,,0.04,Wunderground v.1.13,2013-04-01 02:35:00,
2013-03-31 22:42:00,40.2,32.9,29.79,North,32767,0.0,0.0,75,0.00,,,0.04,Wunderground v.1.13,2013-04-01 02:42:00,
2013-03-31 22:47:00,40.1,32.8,29.79,North,32767,0.0,0.0,75,0.00,,,0.04,Wunderground v.1.13,2013-04-01 02:47:00,
2013-03-31 22:52:00,40.1,32.8,29.79,North,360,0.0,0.0,75,0.00,,,0.04,Wunderground v.1.13,2013-04-01 02:52:00,
2013-03-31 22:58:00,40.0,32.7,29.79,North,360,0.0,0.0,75,0.00,,,0.04,Wunderground v.1.13,2013-04-01 02:58:00,
2013-03-31 23:03:00,40.0,32.7,29.79,North,32767,0.0,0.0,75,0.00,,,0.04,Wunderground v.1.13,2013-04-01 03:03:00,
2013-03-31 23:09:00,39.9,32.6,29.79,North,360,0.0,0.0,75,0.00,,,0.04,Wunderground v.1.13,2013-04-01 03:09:00,
2013-03-31 23:14:00,39.8,32.5,29.79,North,32767,0.0,0.0,75,0.00,,,0.04,Wunderground v.1.13,2013-04-01 03:14:00,
2013-03-31 23:20:00,39.7,32.4,29.79,North,32767,0.0,0.0,75,0.00,,,0.04,Wunderground v.1.13,2013-04-01 03:20:00,
2013-03-31 23:25:00,39.6,32.3,29.79,North,32767,0.0,0.0,75,0.00,,,0.04,Wunderground v.1.13,2013-04-01 03:25:00,
2013-03-31 23:30:00,39.6,32.3,29.79,North,32767,0.0,0.0,75,0.00,,,0.04,Wunderground v.1.13,2013-04-01 03:30:00,
2013-03-31 23:35:00,39.5,32.2,29.79,North,32767,0.0,0.0,75,0.00,,,0.04,Wunderground v.1.13,2013-04-01 03:35:00,
2013-03-31 23:41:00,39.5,32.6,29.79,North,32767,0.0,0.0,76,0.00,,,0.04,Wunderground v.1.13,2013-04-01 03:41:00,
2013-03-31 23:47:00,39.4,32.5,29.79,North,32767,0.0,0.0,76,0.00,,,0.04,Wunderground v.1.13,2013-04-01 03:47:00,
2013-03-31 23:54:00,40.0,32.7,29.79,N/A,-737280,0.0,0.0,75,0.00,,,0.04,Wunderground v.1.13,2013-04-01 03:54:00,